Time;durP1;ratioP1;P1;durP2;ratioP2;P2;SDS_P1;SDS_P2;PMS_P1;PMS_P2;Temp;Humidity;BMP_temperature;BMP_pressure;BME280_temperature;BME280_humidity;BME280_pressure;Samples;Min_cycle;Max_cycle;Signal;HPM_P1;HPM_P2
2022/10/07 00:01:31;;;;;;;7.33;3.80;;;7.70;99.90;;;;;;5112303;28;20466;-79
2022/10/07 00:03:58;;;;;;;11.63;3.77;;;7.70;99.90;;;;;;5111753;28;20457;-79
2022/10/07 00:06:25;;;;;;;10.17;4.37;;;7.60;99.90;;;;;;5112321;28;20458;-80
2022/10/07 00:08:53;;;;;;;11.83;4.20;;;7.60;99.90;;;;;;5109897;28;20538;-80
2022/10/07 00:11:21;;;;;;;6.27;3.80;;;7.50;99.90;;;;;;5104895;28;20518;-79
2022/10/07 00:13:52;;;;;;;16.73;3.63;;;7.50;99.90;;;;;;5112066;27;20445;-80
2022/10/07 00:16:23;;;;;;;7.60;3.90;;;7.50;99.90;;;;;;5112146;28;20449;-80
2022/10/07 00:18:51;;;;;;;15.50;3.87;;;7.40;99.90;;;;;;5110385;28;20840;-79
2022/10/07 00:21:20;;;;;;;16.27;4.20;;;7.30;99.90;;;;;;5091314;28;20513;-80
2022/10/07 00:23:47;;;;;;;12.13;3.60;;;7.30;99.90;;;;;;5096385;28;20480;-79
2022/10/07 00:26:16;;;;;;;11.60;3.90;;;7.30;99.90;;;;;;5092021;28;20457;-80
2022/10/07 00:28:43;;;;;;;5.83;3.40;;;7.30;99.90;;;;;;5091869;28;20449;-79
2022/10/07 00:31:13;;;;;;;6.53;3.57;;;7.30;99.90;;;;;;5111355;28;20486;-80
2022/10/07 00:33:41;;;;;;;10.13;3.23;;;7.20;99.90;;;;;;5107714;28;20450;-80
2022/10/07 00:36:11;;;;;;;7.40;3.30;;;7.20;99.90;;;;;;5091875;28;20593;-79
2022/10/07 00:38:38;;;;;;;7.17;3.37;;;7.20;99.90;;;;;;5091797;28;20573;-80
2022/10/07 00:41:08;;;;;;;5.40;3.13;;;7.20;99.90;;;;;;5091572;28;20503;-79
2022/10/07 00:43:35;;;;;;;8.47;3.57;;;7.10;99.90;;;;;;5093099;28;20502;-80
2022/10/07 00:46:07;;;;;;;7.90;4.20;;;7.10;99.90;;;;;;5111875;28;20452;-79
2022/10/07 00:48:38;;;;;;;8.10;3.50;;;7.10;99.90;;;;;;5124966;28;20448;-79
2022/10/07 00:51:06;;;;;;;18.67;3.60;;;7.10;99.90;;;;;;5109251;27;20479;-80
2022/10/07 00:53:37;;;;;;;8.50;3.97;;;7.00;99.90;;;;;;5106987;28;20778;-79
2022/10/07 00:56:07;;;;;;;8.00;3.77;;;7.00;99.90;;;;;;5097998;28;20465;-80
2022/10/07 00:58:36;;;;;;;9.30;3.20;;;7.00;99.90;;;;;;5111525;28;20490;-80
2022/10/07 01:01:03;;;;;;;7.40;3.30;;;7.00;99.90;;;;;;5092230;28;20472;-79
2022/10/07 01:03:31;;;;;;;8.13;3.20;;;7.00;99.90;;;;;;5091626;28;20448;-80
2022/10/07 01:05:58;;;;;;;10.33;3.90;;;7.00;99.90;;;;;;5091425;28;21027;-79
2022/10/07 01:08:24;;;;;;;4.40;3.27;;;7.00;99.90;;;;;;5092365;28;20958;-79
2022/10/07 01:11:00;;;;;;;4.00;3.13;;;6.90;99.90;;;;;;5109446;28;20823;-79
2022/10/07 01:13:33;;;;;;;9.37;3.90;;;6.90;99.90;;;;;;5095052;28;20480;-79
2022/10/07 01:16:09;;;;;;;4.80;3.00;;;6.90;99.90;;;;;;5095412;28;20442;-79
2022/10/07 01:18:41;;;;;;;3.20;2.87;;;6.90;99.90;;;;;;5094843;28;21010;-80
2022/10/07 01:21:14;;;;;;;8.83;3.63;;;6.90;99.90;;;;;;5094443;28;20899;-79
2022/10/07 01:24:02;;;;;;;9.53;3.27;;;6.80;99.90;;;;;;5094405;28;20446;-80
2022/10/07 01:26:45;;;;;;;14.00;3.40;;;6.80;99.90;;;;;;5095377;28;20545;-80
2022/10/07 01:29:14;;;;;;;7.70;3.30;;;6.80;99.90;;;;;;5094683;28;20874;-79
2022/10/07 01:31:46;;;;;;;10.67;3.73;;;6.90;99.90;;;;;;5094470;28;20482;-79
2022/10/07 01:34:14;;;;;;;8.53;3.40;;;6.90;99.90;;;;;;5094469;28;20459;-80
2022/10/07 01:36:42;;;;;;;5.57;3.60;;;6.80;99.90;;;;;;5094646;28;20958;-79
2022/10/07 01:39:13;;;;;;;12.30;3.33;;;6.80;99.90;;;;;;5094637;28;20559;-80
2022/10/07 01:41:41;;;;;;;11.97;3.57;;;6.80;99.90;;;;;;5094882;28;20471;-79
2022/10/07 01:44:10;;;;;;;11.50;3.33;;;6.80;99.90;;;;;;5094284;28;20836;-79
2022/10/07 01:46:37;;;;;;;8.63;3.80;;;6.80;99.90;;;;;;5093362;28;20447;-80
2022/10/07 01:49:04;;;;;;;8.67;3.73;;;6.80;99.90;;;;;;5127800;27;20449;-80
2022/10/07 01:51:35;;;;;;;11.60;3.63;;;6.80;99.90;;;;;;5094382;28;20967;-80
2022/10/07 01:54:13;;;;;;;7.30;3.60;;;6.70;99.90;;;;;;5094390;28;20889;-79
2022/10/07 01:56:52;;;;;;;8.73;4.27;;;6.70;99.90;;;;;;5094121;28;20462;-80
2022/10/07 01:59:36;;;;;;;7.73;3.60;;;6.70;99.90;;;;;;5094347;28;20884;-80
2022/10/07 02:02:11;;;;;;;8.27;3.90;;;6.70;99.90;;;;;;5093623;28;20472;-80
2022/10/07 02:04:47;;;;;;;6.90;3.80;;;6.60;99.90;;;;;;5094089;28;20535;-79
2022/10/07 02:07:24;;;;;;;9.20;3.87;;;6.60;99.90;;;;;;5094379;28;20454;-80
2022/10/07 02:09:59;;;;;;;13.33;4.53;;;6.50;99.90;;;;;;5094275;28;20936;-79
2022/10/07 02:12:34;;;;;;;11.23;3.70;;;6.50;99.90;;;;;;5094118;28;20481;-80
2022/10/07 02:15:05;;;;;;;13.73;4.83;;;6.40;99.90;;;;;;5093633;28;20466;-79
2022/10/07 02:17:36;;;;;;;14.53;3.97;;;6.40;99.90;;;;;;5094181;28;20453;-80
2022/10/07 02:20:05;;;;;;;7.20;3.50;;;6.30;99.90;;;;;;5093908;28;20486;-80
2022/10/07 02:22:33;;;;;;;8.20;4.10;;;6.30;99.90;;;;;;5093016;28;20511;-80
2022/10/07 02:25:00;;;;;;;13.47;3.87;;;6.30;99.90;;;;;;5097751;28;20454;-80
2022/10/07 02:27:32;;;;;;;7.50;3.60;;;6.30;99.90;;;;;;5114458;28;20511;-80
2022/10/07 02:30:03;;;;;;;13.57;3.93;;;6.30;99.90;;;;;;5113101;28;20573;-80
2022/10/07 02:32:31;;;;;;;13.97;3.90;;;6.30;99.90;;;;;;5113963;28;20507;-80
2022/10/07 02:35:02;;;;;;;11.47;3.70;;;6.30;99.90;;;;;;5113132;28;20957;-79
2022/10/07 02:37:35;;;;;;;8.73;4.00;;;6.20;99.90;;;;;;5113602;28;20958;-80
2022/10/07 02:40:02;;;;;;;3.70;3.40;;;6.20;99.90;;;;;;5114125;27;20524;-79
2022/10/07 02:42:37;;;;;;;8.47;3.40;;;6.20;99.90;;;;;;5113881;28;20524;-79
2022/10/07 02:45:14;;;;;;;10.87;3.80;;;6.20;99.90;;;;;;5104332;27;20760;-80
2022/10/07 02:47:48;;;;;;;7.37;3.80;;;6.10;99.90;;;;;;5119621;27;20453;-79
2022/10/07 02:50:19;;;;;;;11.13;4.07;;;6.10;99.90;;;;;;5134496;27;20537;-79
2022/10/07 02:52:47;;;;;;;7.20;3.70;;;6.10;99.90;;;;;;5130182;27;20457;-79
2022/10/07 02:55:17;;;;;;;18.47;5.37;;;6.10;99.90;;;;;;5100647;28;20458;-79
2022/10/07 02:57:47;;;;;;;8.90;2.90;;;6.10;99.90;;;;;;5093617;28;20454;-79
2022/10/07 03:00:14;;;;;;;5.93;3.50;;;6.00;99.90;;;;;;5093238;28;20479;-79
2022/10/07 03:02:48;;;;;;;11.63;3.70;;;6.00;99.90;;;;;;5093306;28;20451;-79
2022/10/07 03:05:18;;;;;;;6.80;3.40;;;6.00;99.90;;;;;;5098229;28;20456;-80
2022/10/07 03:07:45;;;;;;;10.23;3.17;;;6.00;99.90;;;;;;5113196;28;20451;-79
2022/10/07 03:10:12;;;;;;;11.13;3.30;;;6.00;99.90;;;;;;5106841;28;20457;-79
2022/10/07 03:12:39;;;;;;;13.17;3.30;;;6.00;99.90;;;;;;5113262;28;20457;-80
2022/10/07 03:15:09;;;;;;;6.93;3.47;;;6.00;99.90;;;;;;5108859;28;20454;-79
2022/10/07 03:17:36;;;;;;;8.30;3.23;;;6.00;99.90;;;;;;5093081;28;20454;-79
2022/10/07 03:20:03;;;;;;;8.33;3.20;;;6.00;99.90;;;;;;5092870;28;20486;-80
2022/10/07 03:22:29;;;;;;;11.13;2.90;;;6.00;99.90;;;;;;5092436;28;20506;-80
2022/10/07 03:24:56;;;;;;;6.43;3.20;;;6.00;99.90;;;;;;5097584;28;20511;-80
2022/10/07 03:27:23;;;;;;;7.17;3.03;;;6.00;99.90;;;;;;5092842;28;20461;-79
2022/10/07 03:29:49;;;;;;;5.97;3.10;;;5.90;99.90;;;;;;5092639;28;20462;-79
2022/10/07 03:32:18;;;;;;;5.03;3.20;;;5.80;99.90;;;;;;5092631;28;20469;-80
2022/10/07 03:34:44;;;;;;;4.53;3.37;;;5.80;99.90;;;;;;5094970;28;20458;-80
2022/10/07 03:37:11;;;;;;;5.83;3.43;;;5.80;99.90;;;;;;5112694;28;20822;-79
2022/10/07 03:39:38;;;;;;;7.67;3.10;;;5.70;99.90;;;;;;5102318;28;20713;-80
2022/10/07 03:42:05;;;;;;;8.90;3.90;;;5.70;99.90;;;;;;5106990;28;21065;-79
2022/10/07 03:44:31;;;;;;;8.80;3.60;;;5.70;99.90;;;;;;5110961;28;20486;-79
2022/10/07 03:46:58;;;;;;;4.17;3.30;;;5.70;99.90;;;;;;5098929;28;20969;-79
2022/10/07 03:49:26;;;;;;;6.50;3.60;;;5.70;99.90;;;;;;5132735;27;20506;-79
2022/10/07 03:51:53;;;;;;;11.33;4.20;;;5.60;99.90;;;;;;5108267;27;20997;-79
2022/10/07 03:54:20;;;;;;;5.73;3.53;;;5.60;99.90;;;;;;5096502;28;20483;-79
2022/10/07 03:56:47;;;;;;;6.63;4.10;;;5.60;99.90;;;;;;5112016;28;20460;-80
2022/10/07 03:59:13;;;;;;;12.53;4.00;;;5.60;99.90;;;;;;5112610;28;20525;-80
2022/10/07 04:01:40;;;;;;;6.47;5.87;;;5.60;99.90;;;;;;5112340;28;20510;-79
2022/10/07 04:04:07;;;;;;;4.77;3.73;;;5.60;99.90;;;;;;5098541;28;20458;-80
2022/10/07 04:06:37;;;;;;;4.23;3.60;;;5.50;99.90;;;;;;5109262;28;20489;-79
2022/10/07 04:09:05;;;;;;;4.03;3.63;;;5.50;99.90;;;;;;5111103;28;20449;-79
2022/10/07 04:11:31;;;;;;;8.53;4.13;;;5.50;99.90;;;;;;5112270;28;20468;-79
2022/10/07 04:13:59;;;;;;;3.37;3.07;;;5.50;99.90;;;;;;5110971;28;20440;-79
2022/10/07 04:16:26;;;;;;;3.97;3.57;;;5.60;99.90;;;;;;5108155;28;20508;-79
2022/10/07 04:18:55;;;;;;;6.60;3.80;;;5.60;99.90;;;;;;5112506;28;20474;-79
2022/10/07 04:21:22;;;;;;;5.70;4.03;;;5.60;99.90;;;;;;5112177;28;20893;-80
2022/10/07 04:23:50;;;;;;;7.40;3.60;;;5.60;99.90;;;;;;5108797;28;20973;-79
2022/10/07 04:26:17;;;;;;;5.30;3.50;;;5.60;99.90;;;;;;5107864;28;20999;-80
2022/10/07 04:28:44;;;;;;;5.50;3.10;;;5.50;99.90;;;;;;5111245;28;20447;-79
2022/10/07 04:31:11;;;;;;;11.53;4.23;;;5.50;99.90;;;;;;5111436;27;20476;-79
2022/10/07 04:33:39;;;;;;;9.33;4.20;;;5.40;99.90;;;;;;5112326;28;20501;-79
2022/10/07 04:36:07;;;;;;;6.40;4.53;;;5.40;99.90;;;;;;5096583;28;20900;-79
2022/10/07 04:38:34;;;;;;;7.13;5.10;;;5.30;99.90;;;;;;5091787;28;20555;-79
2022/10/07 04:41:05;;;;;;;9.43;4.97;;;5.30;99.90;;;;;;5091133;28;20888;-79
2022/10/07 04:43:33;;;;;;;8.33;5.13;;;5.30;99.90;;;;;;5091638;28;20536;-79
2022/10/07 04:46:03;;;;;;;9.27;4.40;;;5.30;99.90;;;;;;5105469;28;21009;-79
2022/10/07 04:48:31;;;;;;;10.20;4.60;;;5.30;99.90;;;;;;5112074;28;20482;-78
2022/10/07 04:51:02;;;;;;;12.80;4.40;;;5.30;99.90;;;;;;5111678;28;20473;-79
2022/10/07 04:53:30;;;;;;;11.63;4.87;;;5.30;99.90;;;;;;5111904;28;20530;-79
2022/10/07 04:55:57;;;;;;;9.13;4.37;;;5.30;99.90;;;;;;5107271;28;21001;-80
2022/10/07 04:58:26;;;;;;;9.67;5.10;;;5.30;99.90;;;;;;5111394;28;20905;-79
2022/10/07 05:00:54;;;;;;;12.80;4.20;;;5.20;99.90;;;;;;5099408;28;20515;-79
2022/10/07 05:03:23;;;;;;;6.90;3.93;;;5.20;99.90;;;;;;5091465;28;20457;-79
2022/10/07 05:05:52;;;;;;;5.97;4.03;;;5.10;99.90;;;;;;5102964;28;20510;-79
2022/10/07 05:08:20;;;;;;;9.10;4.17;;;5.10;99.90;;;;;;5110298;28;20459;-79
2022/10/07 05:10:47;;;;;;;8.03;4.70;;;5.10;99.90;;;;;;5108859;28;20521;-79
2022/10/07 05:13:16;;;;;;;6.13;4.40;;;5.10;99.90;;;;;;5108268;28;20455;-80
2022/10/07 05:15:52;;;;;;;6.47;4.50;;;5.10;99.90;;;;;;5108944;28;20959;-80
2022/10/07 05:18:19;;;;;;;5.20;4.17;;;5.10;99.90;;;;;;5111517;28;20456;-78
2022/10/07 05:20:47;;;;;;;5.33;3.70;;;5.00;99.90;;;;;;5110910;28;20494;-79
2022/10/07 05:23:14;;;;;;;8.80;5.03;;;5.00;99.90;;;;;;5110713;28;20940;-79
2022/10/07 05:25:42;;;;;;;9.30;4.40;;;5.00;99.90;;;;;;5091264;28;20461;-80
2022/10/07 05:28:09;;;;;;;22.93;5.07;;;4.90;99.90;;;;;;5090830;28;20488;-79
2022/10/07 05:30:36;;;;;;;11.67;5.40;;;4.90;99.90;;;;;;5095336;28;20477;-79
2022/10/07 05:33:04;;;;;;;11.20;5.40;;;4.90;99.90;;;;;;5111057;28;20455;-79
2022/10/07 05:35:32;;;;;;;12.87;5.83;;;4.90;99.90;;;;;;5098861;28;20452;-79
2022/10/07 05:37:59;;;;;;;12.80;5.70;;;4.90;99.90;;;;;;5106024;28;20873;-77
2022/10/07 05:40:26;;;;;;;9.50;4.57;;;4.90;99.90;;;;;;5110896;28;20541;-77
2022/10/07 05:42:53;;;;;;;8.03;4.53;;;4.90;99.90;;;;;;5111168;28;20934;-76
2022/10/07 05:45:20;;;;;;;9.77;4.93;;;4.80;99.90;;;;;;5110729;28;20460;-77
2022/10/07 05:47:47;;;;;;;8.10;5.03;;;4.80;99.90;;;;;;5117395;28;20442;-76
2022/10/07 05:50:15;;;;;;;9.47;5.47;;;4.70;99.90;;;;;;5131557;27;20474;-77
2022/10/07 05:52:44;;;;;;;8.80;4.90;;;4.70;99.90;;;;;;5131413;27;21018;-76
2022/10/07 05:55:10;;;;;;;10.23;5.20;;;4.70;99.90;;;;;;5114027;27;20452;-77
2022/10/07 05:57:38;;;;;;;7.37;4.70;;;4.80;99.90;;;;;;5108060;28;20472;-77
2022/10/07 06:00:06;;;;;;;5.03;4.20;;;4.80;99.90;;;;;;5114823;28;20561;-76
2022/10/07 06:02:33;;;;;;;5.70;4.10;;;4.80;99.90;;;;;;5115069;28;20453;-77
2022/10/07 06:05:00;;;;;;;9.60;4.47;;;4.90;99.90;;;;;;5107421;28;20498;-78
2022/10/07 06:07:28;;;;;;;4.17;3.77;;;4.90;99.90;;;;;;5094131;28;20536;-78
2022/10/07 06:15:23;;;;;;;6.53;4.67;;;5.00;99.90;;;;;;5104237;28;20451;-78
2022/10/07 06:17:50;;;;;;;4.53;4.07;;;5.10;99.90;;;;;;5106504;28;20453;-78
2022/10/07 06:20:16;;;;;;;7.73;4.20;;;5.30;99.90;;;;;;5114158;28;20490;-78
2022/10/07 06:22:44;;;;;;;6.40;4.17;;;5.70;99.90;;;;;;5114185;28;20873;-78
2022/10/07 06:25:11;;;;;;;6.37;4.20;;;6.20;99.90;;;;;;5095229;27;20453;-77
2022/10/07 06:27:38;;;;;;;5.43;3.87;;;6.80;99.90;;;;;;5110226;28;20461;-77
2022/10/07 06:30:06;;;;;;;4.23;3.67;;;7.50;99.90;;;;;;5114079;27;20464;-77
2022/10/07 06:32:33;;;;;;;4.20;3.60;;;8.10;99.90;;;;;;5113938;28;20869;-77
2022/10/07 06:34:59;;;;;;;4.03;3.47;;;8.60;99.90;;;;;;5114021;28;20460;-77
2022/10/07 06:37:29;;;;;;;3.80;3.47;;;9.10;99.90;;;;;;5114053;28;20456;-77
2022/10/07 06:39:57;;;;;;;5.93;3.93;;;9.40;99.90;;;;;;5113934;28;20486;-77
2022/10/07 06:42:24;;;;;;;9.87;3.87;;;10.00;99.90;;;;;;5099891;28;20525;-77
2022/10/07 06:44:52;;;;;;;6.83;3.83;;;10.60;99.90;;;;;;5093582;28;20992;-77
2022/10/07 06:47:19;;;;;;;5.50;3.90;;;11.00;99.90;;;;;;5098106;27;20519;-77
2022/10/07 06:49:46;;;;;;;6.77;4.30;;;11.40;99.90;;;;;;5134432;27;20451;-78
2022/10/07 06:52:12;;;;;;;9.73;4.63;;;11.70;99.90;;;;;;5133905;27;20469;-77
2022/10/07 06:54:39;;;;;;;7.90;4.43;;;12.10;99.90;;;;;;5128587;27;20488;-78
2022/10/07 06:57:07;;;;;;;6.47;4.60;;;12.50;99.90;;;;;;5104737;28;20457;-79
2022/10/07 06:59:34;;;;;;;6.40;3.97;;;13.10;99.90;;;;;;5113571;28;20952;-78
2022/10/07 07:02:00;;;;;;;7.10;4.20;;;13.40;99.90;;;;;;5113224;28;20853;-78
2022/10/07 07:04:27;;;;;;;9.83;4.13;;;13.60;99.90;;;;;;5112815;27;20465;-78
2022/10/07 07:06:54;;;;;;;8.13;4.40;;;13.90;99.90;;;;;;5093177;28;20454;-78
2022/10/07 07:09:21;;;;;;;9.70;4.20;;;14.30;99.90;;;;;;5093852;28;20456;-78
2022/10/07 07:11:48;;;;;;;11.70;4.23;;;14.50;99.90;;;;;;5102002;28;20503;-78
2022/10/07 07:14:17;;;;;;;8.10;4.13;;;14.60;99.90;;;;;;5102449;28;20447;-78
2022/10/07 07:16:44;;;;;;;7.57;4.73;;;14.70;99.90;;;;;;5112017;28;20463;-78
2022/10/07 07:19:13;;;;;;;11.70;4.30;;;15.00;99.90;;;;;;5113439;28;20450;-79
2022/10/07 07:21:39;;;;;;;11.73;4.47;;;15.40;99.90;;;;;;5113052;28;20491;-79
2022/10/07 07:24:07;;;;;;;5.40;4.17;;;15.60;99.90;;;;;;5102180;28;20476;-79
2022/10/07 07:26:34;;;;;;;6.03;4.30;;;15.80;99.90;;;;;;5100292;28;20453;-79
2022/10/07 07:29:03;;;;;;;5.07;3.90;;;15.70;99.90;;;;;;5113281;28;20608;-79
2022/10/07 07:31:33;;;;;;;5.40;3.93;;;15.70;99.90;;;;;;5112781;28;20902;-80
2022/10/07 07:34:02;;;;;;;8.83;4.40;;;15.50;99.90;;;;;;5113114;28;20931;-79
2022/10/07 07:36:32;;;;;;;6.70;4.70;;;15.50;99.90;;;;;;5094834;28;20463;-79
2022/10/07 07:39:02;;;;;;;6.87;4.40;;;15.40;99.90;;;;;;5105786;28;20451;-79
2022/10/07 07:41:31;;;;;;;9.50;4.60;;;15.20;99.90;;;;;;5092484;28;20577;-78
2022/10/07 07:43:59;;;;;;;10.53;4.50;;;15.00;99.90;;;;;;5092604;28;20497;-79
2022/10/07 07:46:32;;;;;;;8.03;4.90;;;14.90;99.90;;;;;;5108011;28;20450;-78
2022/10/07 07:49:00;;;;;;;8.43;4.33;;;14.80;99.90;;;;;;5128191;27;20455;-78
2022/10/07 07:51:27;;;;;;;6.07;4.37;;;14.70;99.90;;;;;;5132630;27;20812;-81
2022/10/07 07:53:53;;;;;;;7.30;4.27;;;14.70;99.90;;;;;;5130202;27;20457;-80
2022/10/07 07:56:22;;;;;;;10.10;4.53;;;14.50;99.90;;;;;;5091568;28;21155;-80
2022/10/07 07:58:49;;;;;;;7.80;4.20;;;14.30;99.90;;;;;;5110053;28;20450;-80
2022/10/07 08:01:18;;;;;;;14.20;4.70;;;14.10;99.90;;;;;;5111583;28;20500;-79
2022/10/07 08:03:46;;;;;;;8.00;4.77;;;14.20;99.90;;;;;;5111663;28;20475;-81
2022/10/07 08:06:16;;;;;;;8.13;4.00;;;14.50;99.90;;;;;;5106171;28;20496;-79
2022/10/07 08:08:43;;;;;;;10.57;5.07;;;14.60;99.90;;;;;;5111969;28;20976;-79
2022/10/07 08:11:12;;;;;;;9.40;4.73;;;14.60;99.90;;;;;;5111921;28;20474;-78
2022/10/07 08:13:40;;;;;;;10.63;5.50;;;14.70;99.90;;;;;;5111380;28;20955;-79
2022/10/07 08:16:07;;;;;;;6.97;4.70;;;14.80;99.90;;;;;;5098345;28;20455;-79
2022/10/07 08:18:34;;;;;;;9.73;4.50;;;14.90;99.90;;;;;;5106931;28;20454;-80
2022/10/07 08:21:02;;;;;;;14.10;6.60;;;15.10;99.90;;;;;;5110569;28;20486;-80
2022/10/07 08:23:30;;;;;;;21.53;4.80;;;15.20;99.90;;;;;;5111077;28;21037;-80
2022/10/07 08:25:58;;;;;;;11.07;4.70;;;15.40;99.90;;;;;;5109965;28;20876;-80
2022/10/07 08:28:26;;;;;;;6.80;4.50;;;15.50;99.90;;;;;;5111251;27;20456;-80
2022/10/07 08:30:53;;;;;;;8.33;4.67;;;15.70;99.90;;;;;;5110938;28;20475;-81
2022/10/07 08:33:21;;;;;;;12.70;4.60;;;15.80;99.90;;;;;;5111618;28;20443;-81
2022/10/07 08:35:50;;;;;;;8.70;4.63;;;15.90;99.90;;;;;;5101940;28;20462;-80
2022/10/07 08:38:17;;;;;;;8.00;4.40;;;15.90;99.90;;;;;;5103736;28;20476;-78
2022/10/07 08:40:49;;;;;;;8.03;4.57;;;16.20;99.90;;;;;;5102699;28;20485;-79
2022/10/07 08:43:16;;;;;;;10.50;4.70;;;16.00;99.90;;;;;;5090610;28;20447;-80
2022/10/07 08:45:44;;;;;;;9.07;4.43;;;16.10;99.90;;;;;;5091146;28;20451;-80
2022/10/07 08:48:17;;;;;;;7.00;4.13;;;16.20;99.90;;;;;;5109697;28;20525;-80
2022/10/07 08:50:51;;;;;;;10.93;4.00;;;16.60;99.90;;;;;;5131584;28;20465;-81
2022/10/07 08:53:24;;;;;;;5.20;4.10;;;16.80;99.90;;;;;;5132088;27;20812;-81
2022/10/07 08:55:56;;;;;;;9.30;4.17;;;16.80;99.90;;;;;;5112049;27;20460;-81
2022/10/07 08:58:43;;;;;;;10.57;4.57;;;17.10;99.90;;;;;;5103981;28;21146;-80
2022/10/07 09:01:21;;;;;;;12.67;4.37;;;17.40;99.90;;;;;;5110900;28;20564;-81
2022/10/07 09:03:58;;;;;;;11.67;5.03;;;17.70;99.90;;;;;;5111118;28;20858;-81
2022/10/07 09:06:29;;;;;;;10.20;4.17;;;17.60;99.90;;;;;;5092268;28;20465;-81
2022/10/07 09:09:03;;;;;;;8.67;4.40;;;17.70;99.90;;;;;;5094345;28;20451;-81
2022/10/07 09:11:34;;;;;;;12.13;4.47;;;17.90;99.90;;;;;;5090515;28;20461;-81
2022/10/07 09:14:08;;;;;;;14.93;5.00;;;17.70;99.90;;;;;;5105664;28;20461;-81
2022/10/07 09:16:39;;;;;;;6.60;4.00;;;17.90;99.90;;;;;;5110272;28;20474;-81
2022/10/07 09:19:25;;;;;;;12.90;4.50;;;18.00;99.90;;;;;;5111066;28;20478;-81
2022/10/07 09:21:55;;;;;;;7.73;4.33;;;17.90;99.90;;;;;;5110702;28;20476;-81
2022/10/07 09:24:24;;;;;;;9.83;4.00;;;17.90;99.90;;;;;;5110974;28;20440;-80
2022/10/07 09:26:54;;;;;;;14.57;4.93;;;17.90;99.90;;;;;;5108522;28;20533;-80
2022/10/07 09:29:25;;;;;;;7.23;3.90;;;18.10;99.90;;;;;;5110958;28;20429;-79
2022/10/07 09:31:52;;;;;;;7.53;4.00;;;18.30;99.90;;;;;;5111522;28;20801;-80
2022/10/07 09:34:22;;;;;;;11.87;3.80;;;18.50;99.90;;;;;;5114799;28;20973;-80
2022/10/07 09:37:15;;;;;;;8.63;3.27;;;18.50;99.90;;;;;;5097839;28;20429;-80
2022/10/07 09:39:43;;;;;;;10.50;3.73;;;18.20;99.90;;;;;;5093867;28;20426;-79
2022/10/07 09:42:22;;;;;;;6.50;3.63;;;18.50;99.90;;;;;;5093832;28;20508;-80
2022/10/07 09:44:51;;;;;;;13.40;3.50;;;18.60;99.90;;;;;;5094322;28;20425;-80
2022/10/07 09:47:22;;;;;;;6.63;3.30;;;18.70;99.90;;;;;;5098219;27;20448;-80
2022/10/07 09:49:51;;;;;;;13.53;3.83;;;19.20;99.90;;;;;;5134967;27;20445;-80
2022/10/07 09:52:22;;;;;;;4.70;3.17;;;19.20;99.90;;;;;;5134287;27;20497;-80
2022/10/07 09:54:50;;;;;;;7.43;3.30;;;19.30;99.90;;;;;;5105962;27;20422;-80
2022/10/07 09:57:27;;;;;;;8.63;4.03;;;19.70;99.90;;;;;;5096023;28;20488;-80
2022/10/07 10:00:16;;;;;;;10.07;4.23;;;20.10;99.90;;;;;;5113790;27;20425;-80
2022/10/07 10:02:47;;;;;;;6.40;3.60;;;20.30;99.90;;;;;;5093570;28;20462;-81
2022/10/07 10:05:21;;;;;;;9.50;3.70;;;20.10;99.90;;;;;;5096575;28;20999;-79
2022/10/07 10:07:53;;;;;;;10.33;3.87;;;20.30;99.90;;;;;;5114185;27;20430;-77
2022/10/07 10:10:23;;;;;;;13.50;3.10;;;20.40;99.90;;;;;;5113882;28;20451;-78
2022/10/07 10:12:53;;;;;;;6.40;2.77;;;20.70;99.90;;;;;;5111134;28;20439;-79
2022/10/07 10:15:26;;;;;;;7.43;3.10;;;20.60;99.90;;;;;;5096364;28;20436;-79
2022/10/07 10:17:57;;;;;;;9.03;3.40;;;20.40;99.90;;;;;;5109679;28;20446;-79
2022/10/07 10:20:38;;;;;;;7.17;3.37;;;19.90;99.90;;;;;;5113658;28;20482;-78
2022/10/07 10:23:29;;;;;;;8.63;3.13;;;20.00;99.90;;;;;;5113411;28;20450;-78
2022/10/07 10:26:25;;;;;;;9.70;2.83;;;20.00;99.90;;;;;;5105508;28;20447;-78
2022/10/07 10:29:11;;;;;;;7.10;2.77;;;20.10;99.90;;;;;;5093211;28;20447;-77
2022/10/07 10:31:52;;;;;;;11.37;3.03;;;20.50;99.90;;;;;;5092069;28;20471;-80
2022/10/07 10:34:33;;;;;;;10.67;3.00;;;20.50;99.90;;;;;;5093436;28;20451;-80
2022/10/07 10:37:08;;;;;;;10.33;3.30;;;20.40;99.90;;;;;;5093263;28;20508;-79
2022/10/07 10:39:48;;;;;;;9.77;3.13;;;20.50;99.90;;;;;;5113198;28;20446;-78
2022/10/07 10:42:21;;;;;;;6.80;3.20;;;20.80;99.90;;;;;;5112158;28;20917;-79
2022/10/07 10:45:02;;;;;;;7.90;3.40;;;20.80;99.90;;;;;;5096097;28;20454;-78
2022/10/07 10:47:38;;;;;;;13.63;4.13;;;20.50;99.90;;;;;;5115945;27;20460;-78
2022/10/07 10:50:14;;;;;;;6.60;3.33;;;20.20;99.90;;;;;;5127814;27;20450;-77
2022/10/07 10:52:52;;;;;;;9.83;3.43;;;20.10;99.90;;;;;;5112827;27;20525;-77
2022/10/07 10:55:41;;;;;;;6.60;3.30;;;20.20;99.90;;;;;;5113011;28;20462;-79
2022/10/07 10:58:22;;;;;;;6.20;3.33;;;20.00;99.90;;;;;;5113250;28;21134;-80
2022/10/07 11:00:58;;;;;;;10.00;3.90;;;19.80;99.90;;;;;;5111929;28;21408;-80
2022/10/07 11:03:39;;;;;;;13.40;3.20;;;19.80;99.90;;;;;;5109617;28;20447;-79
2022/10/07 11:06:09;;;;;;;12.50;3.40;;;19.90;99.90;;;;;;5100890;28;20943;-79
2022/10/07 11:08:37;;;;;;;8.67;3.47;;;20.10;99.90;;;;;;5095123;27;20429;-80
2022/10/07 11:11:07;;;;;;;13.20;3.43;;;20.70;99.90;;;;;;5091950;28;20483;-79
2022/10/07 11:13:40;;;;;;;9.33;2.83;;;21.10;99.90;;;;;;5100944;28;20454;-80
2022/10/07 11:16:16;;;;;;;7.00;3.10;;;21.10;99.90;;;;;;5112238;28;21063;-77
2022/10/07 11:18:47;;;;;;;8.40;3.07;;;20.90;99.90;;;;;;5102771;28;20461;-77
2022/10/07 11:21:20;;;;;;;8.30;2.90;;;20.80;99.90;;;;;;5091388;28;20479;-78
2022/10/07 11:23:54;;;;;;;9.60;2.83;;;20.60;99.90;;;;;;5092145;28;20447;-78
2022/10/07 11:26:28;;;;;;;8.73;2.93;;;21.00;99.90;;;;;;5092039;28;20454;-77
2022/10/07 11:28:58;;;;;;;6.37;2.60;;;21.40;99.90;;;;;;5092692;28;20822;-80
2022/10/07 11:31:32;;;;;;;4.93;2.60;;;21.70;99.90;;;;;;5093525;28;20480;-81
2022/10/07 11:34:13;;;;;;;6.93;2.83;;;21.90;99.90;;;;;;5108925;28;20450;-76
2022/10/07 11:36:47;;;;;;;8.93;3.10;;;22.10;99.90;;;;;;5112507;28;20455;-76
2022/10/07 11:39:13;;;;;;;8.80;2.73;;;22.00;99.90;;;;;;5101137;28;20455;-76
2022/10/07 11:41:49;;;;;;;10.13;2.40;;;22.10;99.90;;;;;;5090959;28;20483;-76
2022/10/07 11:44:22;;;;;;;9.10;2.60;;;22.10;99.90;;;;;;5095142;28;20968;-77
2022/10/07 11:46:51;;;;;;;10.80;2.90;;;22.00;99.90;;;;;;5091591;28;20921;-79
2022/10/07 11:49:23;;;;;;;3.80;1.90;;;21.90;99.90;;;;;;5091952;28;20452;-79
2022/10/07 11:51:57;;;;;;;7.73;2.50;;;21.80;99.90;;;;;;5091209;28;20459;-79
2022/10/07 11:54:27;;;;;;;6.07;2.40;;;21.50;99.90;;;;;;5091952;28;20478;-79
2022/10/07 11:56:58;;;;;;;8.50;2.10;;;21.30;99.90;;;;;;5091505;28;20454;-79
2022/10/07 11:59:33;;;;;;;8.33;2.50;;;21.40;99.90;;;;;;5095888;28;20943;-81
2022/10/07 12:02:02;;;;;;;8.30;2.47;;;21.20;99.90;;;;;;5091818;28;20548;-80
2022/10/07 12:04:46;;;;;;;6.43;1.90;;;21.20;99.90;;;;;;5091582;28;20486;-79
2022/10/07 12:07:33;;;;;;;3.37;1.90;;;21.20;99.90;;;;;;5091541;28;20443;-79
2022/10/07 12:10:31;;;;;;;8.30;2.50;;;21.10;99.90;;;;;;5108417;28;20454;-80
2022/10/07 12:13:00;;;;;;;4.40;2.17;;;20.90;99.90;;;;;;5111700;28;20434;-79
2022/10/07 12:15:33;;;;;;;3.30;1.93;;;21.20;99.90;;;;;;5111541;28;20453;-79
2022/10/07 12:18:27;;;;;;;8.77;2.43;;;21.70;99.90;;;;;;5109504;28;20453;-79
2022/10/07 12:21:03;;;;;;;12.27;2.60;;;22.00;99.90;;;;;;5090593;28;20498;-79
2022/10/07 12:23:47;;;;;;;7.60;2.63;;;22.00;99.90;;;;;;5098786;28;20494;-79
2022/10/07 12:26:51;;;;;;;5.53;2.70;;;22.20;99.90;;;;;;5100863;28;20450;-79
2022/10/07 12:29:33;;;;;;;8.40;2.53;;;22.10;99.90;;;;;;5093721;28;20537;-79
2022/10/07 12:32:00;;;;;;;8.30;2.60;;;22.10;99.90;;;;;;5110319;28;20455;-79
2022/10/07 12:34:35;;;;;;;7.30;2.33;;;21.70;99.90;;;;;;5111345;28;20450;-79
2022/10/07 12:37:40;;;;;;;9.00;2.67;;;21.40;99.90;;;;;;5111305;28;20973;-79
2022/10/07 12:40:16;;;;;;;6.60;2.33;;;21.20;99.90;;;;;;5094145;28;20451;-79
2022/10/07 12:42:54;;;;;;;3.97;2.23;;;21.10;99.90;;;;;;5089979;28;20487;-78
2022/10/07 12:45:23;;;;;;;4.73;2.20;;;20.90;99.90;;;;;;5092060;28;20425;-79
2022/10/07 12:47:54;;;;;;;7.30;3.10;;;21.00;99.90;;;;;;5104179;28;20438;-79
2022/10/07 12:50:25;;;;;;;4.57;2.40;;;20.70;99.90;;;;;;5093896;27;20984;-79
2022/10/07 12:52:55;;;;;;;6.80;2.77;;;20.70;99.90;;;;;;5090879;28;20475;-78
2022/10/07 12:55:29;;;;;;;5.20;2.37;;;20.50;99.90;;;;;;5090655;28;20542;-78
2022/10/07 12:59:45;;;;;;;13.17;3.07;;;20.50;99.90;;;;;;5093635;28;20538;-80
2022/10/07 13:01:02;;;;;;;11.17;3.03;;;20.60;99.90;;;;;;5090802;28;20844;-79
2022/10/07 13:04:03;;;;;;;11.10;3.07;;;20.80;99.90;;;;;;5090767;28;21037;-80
2022/10/07 13:07:14;;;;;;;8.97;2.70;;;21.30;99.90;;;;;;5091628;28;20443;-81
2022/10/07 13:10:15;;;;;;;6.70;3.10;;;22.00;99.90;;;;;;5103558;28;20511;-79
2022/10/07 13:12:50;;;;;;;8.17;2.60;;;22.00;99.90;;;;;;5114237;28;20499;-81
2022/10/07 13:15:30;;;;;;;10.20;3.20;;;21.70;99.90;;;;;;5113302;28;20461;-77